sensor_id;sensor_type;location;lat;lon;timestamp;P1;durP1;ratioP1;P2;durP2;ratioP2
15466;SDS011;7834;49.452;11.056;2023-04-03T00:01:00;2.67;;;2.10;;
15466;SDS011;7834;49.452;11.056;2023-04-03T00:03:26;2.60;;;2.20;;
15466;SDS011;7834;49.452;11.056;2023-04-03T00:05:52;2.65;;;1.90;;
15466;SDS011;7834;49.452;11.056;2023-04-03T00:08:18;2.28;;;2.08;;
15466;SDS011;7834;49.452;11.056;2023-04-03T00:10:44;2.58;;;2.00;;
15466;SDS011;7834;49.452;11.056;2023-04-03T00:13:11;2.08;;;1.88;;
15466;SDS011;7834;49.452;11.056;2023-04-03T00:15:37;2.72;;;2.03;;
15466;SDS011;7834;49.452;11.056;2023-04-03T00:18:03;2.20;;;1.80;;
15466;SDS011;7834;49.452;11.056;2023-04-03T00:20:30;3.28;;;2.20;;
15466;SDS011;7834;49.452;11.056;2023-04-03T00:22:56;2.85;;;2.08;;
15466;SDS011;7834;49.452;11.056;2023-04-03T00:25:23;2.28;;;2.00;;
15466;SDS011;7834;49.452;11.056;2023-04-03T00:27:49;2.42;;;2.00;;
15466;SDS011;7834;49.452;11.056;2023-04-03T00:30:16;2.87;;;1.90;;
15466;SDS011;7834;49.452;11.056;2023-04-03T00:32:42;2.08;;;1.85;;
15466;SDS011;7834;49.452;11.056;2023-04-03T00:35:09;2.50;;;1.90;;
15466;SDS011;7834;49.452;11.056;2023-04-03T00:37:35;2.33;;;1.70;;
15466;SDS011;7834;49.452;11.056;2023-04-03T00:40:01;2.40;;;2.00;;
15466;SDS011;7834;49.452;11.056;2023-04-03T00:42:33;2.78;;;1.63;;
15466;SDS011;7834;49.452;11.056;2023-04-03T00:47:26;2.20;;;1.80;;
15466;SDS011;7834;49.452;11.056;2023-04-03T00:49:52;2.90;;;1.92;;
15466;SDS011;7834;49.452;11.056;2023-04-03T00:52:20;2.80;;;1.77;;
15466;SDS011;7834;49.452;11.056;2023-04-03T00:54:51;2.25;;;2.03;;
15466;SDS011;7834;49.452;11.056;2023-04-03T00:57:18;2.30;;;2.00;;
15466;SDS011;7834;49.452;11.056;2023-04-03T00:59:45;2.40;;;2.20;;
15466;SDS011;7834;49.452;11.056;2023-04-03T01:02:12;2.85;;;2.03;;
15466;SDS011;7834;49.452;11.056;2023-04-03T01:04:40;2.23;;;2.00;;
15466;SDS011;7834;49.452;11.056;2023-04-03T01:07:08;2.35;;;2.13;;
15466;SDS011;7834;49.452;11.056;2023-04-03T01:09:35;3.00;;;2.10;;
15466;SDS011;7834;49.452;11.056;2023-04-03T01:12:14;2.58;;;2.00;;
15466;SDS011;7834;49.452;11.056;2023-04-03T01:14:42;2.65;;;2.00;;
15466;SDS011;7834;49.452;11.056;2023-04-03T01:20:20;2.83;;;2.10;;
15466;SDS011;7834;49.452;11.056;2023-04-03T01:25:14;2.10;;;1.80;;
15466;SDS011;7834;49.452;11.056;2023-04-03T01:27:40;2.95;;;2.13;;
15466;SDS011;7834;49.452;11.056;2023-04-03T01:30:07;2.58;;;2.10;;
15466;SDS011;7834;49.452;11.056;2023-04-03T01:32:33;3.40;;;1.90;;
15466;SDS011;7834;49.452;11.056;2023-04-03T01:34:59;2.58;;;2.30;;
15466;SDS011;7834;49.452;11.056;2023-04-03T01:37:25;2.53;;;2.00;;
15466;SDS011;7834;49.452;11.056;2023-04-03T01:39:51;2.55;;;2.05;;
15466;SDS011;7834;49.452;11.056;2023-04-03T01:42:17;2.22;;;2.03;;
15466;SDS011;7834;49.452;11.056;2023-04-03T01:44:43;2.47;;;2.00;;
15466;SDS011;7834;49.452;11.056;2023-04-03T01:47:10;2.67;;;2.00;;
15466;SDS011;7834;49.452;11.056;2023-04-03T01:49:36;2.13;;;1.90;;
15466;SDS011;7834;49.452;11.056;2023-04-03T01:52:05;2.38;;;1.80;;
15466;SDS011;7834;49.452;11.056;2023-04-03T01:54:35;3.28;;;1.92;;
15466;SDS011;7834;49.452;11.056;2023-04-03T01:57:01;2.00;;;1.80;;
15466;SDS011;7834;49.452;11.056;2023-04-03T01:59:27;1.85;;;1.73;;
15466;SDS011;7834;49.452;11.056;2023-04-03T02:01:55;2.60;;;1.90;;
15466;SDS011;7834;49.452;11.056;2023-04-03T02:04:22;2.85;;;2.00;;
15466;SDS011;7834;49.452;11.056;2023-04-03T02:06:48;2.13;;;1.75;;
15466;SDS011;7834;49.452;11.056;2023-04-03T02:09:14;2.35;;;2.00;;
15466;SDS011;7834;49.452;11.056;2023-04-03T02:11:40;2.20;;;2.00;;
15466;SDS011;7834;49.452;11.056;2023-04-03T02:14:06;2.50;;;1.90;;
15466;SDS011;7834;49.452;11.056;2023-04-03T02:16:35;2.27;;;1.80;;
15466;SDS011;7834;49.452;11.056;2023-04-03T02:19:01;2.28;;;2.08;;
15466;SDS011;7834;49.452;11.056;2023-04-03T02:21:28;3.25;;;2.20;;
15466;SDS011;7834;49.452;11.056;2023-04-03T02:23:54;2.22;;;1.83;;
15466;SDS011;7834;49.452;11.056;2023-04-03T02:26:20;2.95;;;2.13;;
15466;SDS011;7834;49.452;11.056;2023-04-03T02:28:46;2.72;;;1.90;;
15466;SDS011;7834;49.452;11.056;2023-04-03T02:31:12;3.70;;;1.90;;
15466;SDS011;7834;49.452;11.056;2023-04-03T02:33:38;2.65;;;1.92;;
15466;SDS011;7834;49.452;11.056;2023-04-03T02:36:05;3.50;;;2.17;;
15466;SDS011;7834;49.452;11.056;2023-04-03T02:38:31;2.40;;;2.20;;
15466;SDS011;7834;49.452;11.056;2023-04-03T02:41:07;2.67;;;2.00;;
15466;SDS011;7834;49.452;11.056;2023-04-03T02:43:33;2.65;;;2.05;;
15466;SDS011;7834;49.452;11.056;2023-04-03T02:45:59;2.17;;;1.95;;
15466;SDS011;7834;49.452;11.056;2023-04-03T02:48:25;2.58;;;2.20;;
15466;SDS011;7834;49.452;11.056;2023-04-03T02:50:51;2.60;;;2.05;;
15466;SDS011;7834;49.452;11.056;2023-04-03T02:53:18;3.00;;;2.28;;
15466;SDS011;7834;49.452;11.056;2023-04-03T02:55:44;2.58;;;1.98;;
15466;SDS011;7834;49.452;11.056;2023-04-03T02:58:10;3.10;;;2.17;;
15466;SDS011;7834;49.452;11.056;2023-04-03T03:00:36;2.25;;;1.88;;
15466;SDS011;7834;49.452;11.056;2023-04-03T03:03:03;3.42;;;2.20;;
15466;SDS011;7834;49.452;11.056;2023-04-03T03:05:29;4.18;;;2.10;;
15466;SDS011;7834;49.452;11.056;2023-04-03T03:07:55;2.93;;;2.27;;
15466;SDS011;7834;49.452;11.056;2023-04-03T03:10:21;3.35;;;2.20;;
15466;SDS011;7834;49.452;11.056;2023-04-03T03:12:47;3.03;;;2.30;;
15466;SDS011;7834;49.452;11.056;2023-04-03T03:15:14;2.42;;;2.22;;
15466;SDS011;7834;49.452;11.056;2023-04-03T03:17:40;3.57;;;2.23;;
15466;SDS011;7834;49.452;11.056;2023-04-03T03:20:07;3.22;;;2.13;;
15466;SDS011;7834;49.452;11.056;2023-04-03T03:22:33;3.28;;;2.40;;
15466;SDS011;7834;49.452;11.056;2023-04-03T03:25:00;3.42;;;2.38;;
15466;SDS011;7834;49.452;11.056;2023-04-03T03:27:27;3.28;;;2.42;;
15466;SDS011;7834;49.452;11.056;2023-04-03T03:29:53;3.60;;;2.40;;
15466;SDS011;7834;49.452;11.056;2023-04-03T03:32:19;3.28;;;2.50;;
15466;SDS011;7834;49.452;11.056;2023-04-03T03:34:45;3.13;;;2.30;;
15466;SDS011;7834;49.452;11.056;2023-04-03T03:37:11;4.70;;;2.60;;
15466;SDS011;7834;49.452;11.056;2023-04-03T03:39:37;3.70;;;2.50;;
15466;SDS011;7834;49.452;11.056;2023-04-03T03:42:03;4.32;;;2.58;;
15466;SDS011;7834;49.452;11.056;2023-04-03T03:44:29;3.47;;;2.50;;
15466;SDS011;7834;49.452;11.056;2023-04-03T03:46:55;2.95;;;2.50;;
15466;SDS011;7834;49.452;11.056;2023-04-03T03:49:21;4.35;;;2.70;;
15466;SDS011;7834;49.452;11.056;2023-04-03T03:51:48;3.20;;;2.40;;
15466;SDS011;7834;49.452;11.056;2023-04-03T03:54:14;4.38;;;2.85;;
15466;SDS011;7834;49.452;11.056;2023-04-03T03:56:40;4.57;;;2.80;;
15466;SDS011;7834;49.452;11.056;2023-04-03T03:59:06;4.68;;;2.88;;
15466;SDS011;7834;49.452;11.056;2023-04-03T04:01:32;4.10;;;3.00;;
15466;SDS011;7834;49.452;11.056;2023-04-03T04:03:59;4.70;;;3.00;;
15466;SDS011;7834;49.452;11.056;2023-04-03T04:06:25;5.55;;;3.25;;
15466;SDS011;7834;49.452;11.056;2023-04-03T04:08:51;4.82;;;3.10;;
15466;SDS011;7834;49.452;11.056;2023-04-03T04:11:17;4.30;;;3.08;;
15466;SDS011;7834;49.452;11.056;2023-04-03T04:13:43;5.70;;;3.00;;
15466;SDS011;7834;49.452;11.056;2023-04-03T04:16:09;4.68;;;3.15;;
15466;SDS011;7834;49.452;11.056;2023-04-03T04:18:35;4.57;;;3.20;;
15466;SDS011;7834;49.452;11.056;2023-04-03T04:21:01;4.45;;;3.20;;
15466;SDS011;7834;49.452;11.056;2023-04-03T04:23:27;5.45;;;3.30;;
15466;SDS011;7834;49.452;11.056;2023-04-03T04:25:54;4.72;;;2.95;;
15466;SDS011;7834;49.452;11.056;2023-04-03T04:28:20;5.50;;;3.10;;
15466;SDS011;7834;49.452;11.056;2023-04-03T04:30:46;4.45;;;3.10;;
15466;SDS011;7834;49.452;11.056;2023-04-03T04:33:12;4.57;;;2.75;;
15466;SDS011;7834;49.452;11.056;2023-04-03T04:35:39;5.53;;;3.30;;
15466;SDS011;7834;49.452;11.056;2023-04-03T04:38:05;4.50;;;3.43;;
15466;SDS011;7834;49.452;11.056;2023-04-03T04:40:31;6.88;;;3.60;;
15466;SDS011;7834;49.452;11.056;2023-04-03T04:42:57;4.53;;;3.05;;
15466;SDS011;7834;49.452;11.056;2023-04-03T04:45:23;6.57;;;3.30;;
15466;SDS011;7834;49.452;11.056;2023-04-03T04:47:49;5.85;;;3.40;;
15466;SDS011;7834;49.452;11.056;2023-04-03T04:50:17;6.40;;;3.67;;
15466;SDS011;7834;49.452;11.056;2023-04-03T04:52:43;5.18;;;3.58;;
15466;SDS011;7834;49.452;11.056;2023-04-03T04:55:09;6.70;;;3.83;;
15466;SDS011;7834;49.452;11.056;2023-04-03T04:57:35;7.05;;;3.60;;
15466;SDS011;7834;49.452;11.056;2023-04-03T05:00:03;7.00;;;3.72;;
15466;SDS011;7834;49.452;11.056;2023-04-03T05:02:29;5.78;;;3.45;;
15466;SDS011;7834;49.452;11.056;2023-04-03T05:04:56;5.93;;;3.70;;
15466;SDS011;7834;49.452;11.056;2023-04-03T05:07:22;3.58;;;3.00;;
15466;SDS011;7834;49.452;11.056;2023-04-03T05:09:48;5.18;;;2.90;;
15466;SDS011;7834;49.452;11.056;2023-04-03T05:12:14;6.15;;;3.25;;
15466;SDS011;7834;49.452;11.056;2023-04-03T05:14:40;5.30;;;3.30;;
15466;SDS011;7834;49.452;11.056;2023-04-03T05:17:06;5.53;;;3.50;;
15466;SDS011;7834;49.452;11.056;2023-04-03T05:19:32;6.10;;;3.38;;
15466;SDS011;7834;49.452;11.056;2023-04-03T05:21:58;5.18;;;3.55;;
15466;SDS011;7834;49.452;11.056;2023-04-03T05:24:24;5.53;;;3.35;;
15466;SDS011;7834;49.452;11.056;2023-04-03T05:26:51;4.77;;;3.30;;
15466;SDS011;7834;49.452;11.056;2023-04-03T05:29:20;6.82;;;3.50;;
15466;SDS011;7834;49.452;11.056;2023-04-03T05:31:48;6.43;;;3.50;;
15466;SDS011;7834;49.452;11.056;2023-04-03T05:34:15;5.73;;;3.43;;
15466;SDS011;7834;49.452;11.056;2023-04-03T05:36:41;6.10;;;3.40;;
15466;SDS011;7834;49.452;11.056;2023-04-03T05:39:07;5.53;;;3.28;;
15466;SDS011;7834;49.452;11.056;2023-04-03T05:41:33;4.75;;;3.13;;
15466;SDS011;7834;49.452;11.056;2023-04-03T05:44:00;7.50;;;3.55;;
15466;SDS011;7834;49.452;11.056;2023-04-03T05:46:26;5.97;;;3.30;;
15466;SDS011;7834;49.452;11.056;2023-04-03T05:48:52;4.22;;;3.17;;
15466;SDS011;7834;49.452;11.056;2023-04-03T05:51:20;5.22;;;3.22;;
15466;SDS011;7834;49.452;11.056;2023-04-03T05:53:47;5.03;;;3.30;;
15466;SDS011;7834;49.452;11.056;2023-04-03T05:56:14;5.63;;;3.03;;
15466;SDS011;7834;49.452;11.056;2023-04-03T05:58:40;5.93;;;3.17;;
15466;SDS011;7834;49.452;11.056;2023-04-03T06:01:06;5.43;;;3.20;;
15466;SDS011;7834;49.452;11.056;2023-04-03T06:03:32;5.55;;;3.28;;
15466;SDS011;7834;49.452;11.056;2023-04-03T06:05:58;7.15;;;3.25;;
15466;SDS011;7834;49.452;11.056;2023-04-03T06:08:25;4.97;;;2.90;;
15466;SDS011;7834;49.452;11.056;2023-04-03T06:10:51;4.85;;;2.83;;
15466;SDS011;7834;49.452;11.056;2023-04-03T06:13:17;5.53;;;3.00;;
15466;SDS011;7834;49.452;11.056;2023-04-03T06:15:46;5.47;;;2.83;;
15466;SDS011;7834;49.452;11.056;2023-04-03T06:18:12;5.68;;;2.80;;
15466;SDS011;7834;49.452;11.056;2023-04-03T06:20:38;5.00;;;2.70;;
15466;SDS011;7834;49.452;11.056;2023-04-03T06:23:04;5.75;;;2.72;;
15466;SDS011;7834;49.452;11.056;2023-04-03T06:25:30;5.78;;;3.05;;
15466;SDS011;7834;49.452;11.056;2023-04-03T06:27:56;6.10;;;2.72;;
15466;SDS011;7834;49.452;11.056;2023-04-03T06:30:23;4.97;;;2.70;;
15466;SDS011;7834;49.452;11.056;2023-04-03T06:32:49;5.97;;;3.58;;
15466;SDS011;7834;49.452;11.056;2023-04-03T06:35:15;9.60;;;5.63;;
15466;SDS011;7834;49.452;11.056;2023-04-03T06:37:41;10.35;;;6.55;;
15466;SDS011;7834;49.452;11.056;2023-04-03T06:40:09;10.57;;;6.40;;
15466;SDS011;7834;49.452;11.056;2023-04-03T06:42:38;7.47;;;4.32;;
15466;SDS011;7834;49.452;11.056;2023-04-03T06:45:05;11.98;;;7.20;;
15466;SDS011;7834;49.452;11.056;2023-04-03T06:47:32;5.28;;;3.22;;
15466;SDS011;7834;49.452;11.056;2023-04-03T06:49:58;6.63;;;3.50;;
15466;SDS011;7834;49.452;11.056;2023-04-03T06:52:25;6.80;;;3.22;;
15466;SDS011;7834;49.452;11.056;2023-04-03T06:54:51;5.03;;;3.22;;
15466;SDS011;7834;49.452;11.056;2023-04-03T06:57:22;7.03;;;3.60;;
15466;SDS011;7834;49.452;11.056;2023-04-03T06:59:48;5.60;;;3.03;;
15466;SDS011;7834;49.452;11.056;2023-04-03T07:02:14;6.03;;;3.15;;
15466;SDS011;7834;49.452;11.056;2023-04-03T07:04:40;4.88;;;3.00;;
15466;SDS011;7834;49.452;11.056;2023-04-03T07:07:06;8.20;;;3.10;;
15466;SDS011;7834;49.452;11.056;2023-04-03T07:09:32;6.43;;;3.40;;
15466;SDS011;7834;49.452;11.056;2023-04-03T07:11:58;5.93;;;3.05;;
15466;SDS011;7834;49.452;11.056;2023-04-03T07:14:25;4.53;;;2.85;;
15466;SDS011;7834;49.452;11.056;2023-04-03T07:16:51;5.13;;;3.10;;
15466;SDS011;7834;49.452;11.056;2023-04-03T07:19:17;6.38;;;3.20;;
15466;SDS011;7834;49.452;11.056;2023-04-03T07:21:44;5.18;;;2.88;;
15466;SDS011;7834;49.452;11.056;2023-04-03T07:24:10;4.93;;;3.00;;
15466;SDS011;7834;49.452;11.056;2023-04-03T07:26:36;5.22;;;3.25;;
15466;SDS011;7834;49.452;11.056;2023-04-03T07:29:02;5.60;;;3.03;;
15466;SDS011;7834;49.452;11.056;2023-04-03T07:31:28;6.00;;;2.90;;
15466;SDS011;7834;49.452;11.056;2023-04-03T07:33:54;7.15;;;3.00;;
15466;SDS011;7834;49.452;11.056;2023-04-03T07:36:21;5.32;;;3.03;;
15466;SDS011;7834;49.452;11.056;2023-04-03T07:38:47;5.40;;;2.97;;
15466;SDS011;7834;49.452;11.056;2023-04-03T07:41:17;6.93;;;3.20;;
15466;SDS011;7834;49.452;11.056;2023-04-03T07:43:44;4.55;;;2.70;;
15466;SDS011;7834;49.452;11.056;2023-04-03T07:46:10;4.07;;;2.90;;
15466;SDS011;7834;49.452;11.056;2023-04-03T07:48:36;7.15;;;3.47;;
15466;SDS011;7834;49.452;11.056;2023-04-03T07:51:02;6.82;;;4.22;;
15466;SDS011;7834;49.452;11.056;2023-04-03T07:53:29;10.73;;;7.93;;
15466;SDS011;7834;49.452;11.056;2023-04-03T07:55:58;13.75;;;9.23;;
15466;SDS011;7834;49.452;11.056;2023-04-03T07:58:25;20.52;;;14.60;;
15466;SDS011;7834;49.452;11.056;2023-04-03T08:00:51;36.80;;;25.55;;
15466;SDS011;7834;49.452;11.056;2023-04-03T08:03:17;11.13;;;7.47;;
15466;SDS011;7834;49.452;11.056;2023-04-03T08:05:45;8.35;;;5.10;;
15466;SDS011;7834;49.452;11.056;2023-04-03T08:08:12;10.82;;;7.28;;
15466;SDS011;7834;49.452;11.056;2023-04-03T08:10:38;12.02;;;7.25;;
15466;SDS011;7834;49.452;11.056;2023-04-03T08:13:04;5.97;;;3.80;;
15466;SDS011;7834;49.452;11.056;2023-04-03T08:15:30;8.93;;;4.47;;
15466;SDS011;7834;49.452;11.056;2023-04-03T08:17:57;9.43;;;4.80;;
15466;SDS011;7834;49.452;11.056;2023-04-03T08:20:23;10.57;;;4.70;;
15466;SDS011;7834;49.452;11.056;2023-04-03T08:22:49;9.10;;;4.40;;
15466;SDS011;7834;49.452;11.056;2023-04-03T08:25:15;5.45;;;3.15;;
15466;SDS011;7834;49.452;11.056;2023-04-03T08:27:42;6.38;;;3.50;;
15466;SDS011;7834;49.452;11.056;2023-04-03T08:30:08;7.65;;;3.40;;
15466;SDS011;7834;49.452;11.056;2023-04-03T08:32:34;6.63;;;3.30;;
15466;SDS011;7834;49.452;11.056;2023-04-03T08:35:01;5.47;;;3.20;;
15466;SDS011;7834;49.452;11.056;2023-04-03T08:37:27;4.10;;;2.87;;
15466;SDS011;7834;49.452;11.056;2023-04-03T08:39:53;14.10;;;9.05;;
15466;SDS011;7834;49.452;11.056;2023-04-03T08:44:57;10.18;;;6.47;;
15466;SDS011;7834;49.452;11.056;2023-04-03T08:47:29;7.47;;;5.25;;
15466;SDS011;7834;49.452;11.056;2023-04-03T08:50:04;15.38;;;9.77;;
15466;SDS011;7834;49.452;11.056;2023-04-03T08:52:33;8.65;;;6.13;;
15466;SDS011;7834;49.452;11.056;2023-04-03T08:55:01;6.40;;;3.35;;
15466;SDS011;7834;49.452;11.056;2023-04-03T08:57:41;6.28;;;3.42;;
15466;SDS011;7834;49.452;11.056;2023-04-03T09:02:51;4.85;;;2.60;;
15466;SDS011;7834;49.452;11.056;2023-04-03T09:05:24;5.13;;;2.90;;
15466;SDS011;7834;49.452;11.056;2023-04-03T09:10:29;4.22;;;2.30;;
15466;SDS011;7834;49.452;11.056;2023-04-03T09:13:01;3.70;;;2.10;;
15466;SDS011;7834;49.452;11.056;2023-04-03T09:15:32;4.60;;;2.30;;
15466;SDS011;7834;49.452;11.056;2023-04-03T09:20:39;3.67;;;2.42;;
15466;SDS011;7834;49.452;11.056;2023-04-03T09:23:19;3.90;;;2.20;;
15466;SDS011;7834;49.452;11.056;2023-04-03T09:25:46;4.30;;;2.50;;
15466;SDS011;7834;49.452;11.056;2023-04-03T09:28:12;3.80;;;2.35;;
15466;SDS011;7834;49.452;11.056;2023-04-03T09:30:38;3.90;;;2.40;;
15466;SDS011;7834;49.452;11.056;2023-04-03T09:33:05;3.70;;;2.13;;
15466;SDS011;7834;49.452;11.056;2023-04-03T09:35:33;3.95;;;2.25;;
15466;SDS011;7834;49.452;11.056;2023-04-03T09:38:01;4.55;;;2.50;;
15466;SDS011;7834;49.452;11.056;2023-04-03T09:40:42;3.53;;;2.13;;
15466;SDS011;7834;49.452;11.056;2023-04-03T09:43:19;4.03;;;2.00;;
15466;SDS011;7834;49.452;11.056;2023-04-03T09:45:46;4.40;;;2.40;;
15466;SDS011;7834;49.452;11.056;2023-04-03T09:53:29;3.00;;;2.00;;
15466;SDS011;7834;49.452;11.056;2023-04-03T09:55:56;4.45;;;2.10;;
15466;SDS011;7834;49.452;11.056;2023-04-03T09:58:32;3.03;;;2.00;;
15466;SDS011;7834;49.452;11.056;2023-04-03T10:01:00;4.10;;;2.00;;
15466;SDS011;7834;49.452;11.056;2023-04-03T10:03:34;6.35;;;3.08;;
15466;SDS011;7834;49.452;11.056;2023-04-03T10:06:01;3.70;;;1.90;;
15466;SDS011;7834;49.452;11.056;2023-04-03T10:08:29;3.67;;;1.98;;
15466;SDS011;7834;49.452;11.056;2023-04-03T10:13:42;4.17;;;2.07;;
15466;SDS011;7834;49.452;11.056;2023-04-03T10:16:16;5.45;;;2.05;;
15466;SDS011;7834;49.452;11.056;2023-04-03T10:21:46;3.78;;;2.10;;
15466;SDS011;7834;49.452;11.056;2023-04-03T10:35:41;3.70;;;2.30;;
15466;SDS011;7834;49.452;11.056;2023-04-03T10:38:01;3.85;;;2.00;;
15466;SDS011;7834;49.452;11.056;2023-04-03T10:40:41;3.42;;;2.00;;
15466;SDS011;7834;49.452;11.056;2023-04-03T10:48:14;4.67;;;2.30;;
15466;SDS011;7834;49.452;11.056;2023-04-03T10:50:58;3.55;;;2.25;;
15466;SDS011;7834;49.452;11.056;2023-04-03T10:53:31;3.35;;;2.33;;
15466;SDS011;7834;49.452;11.056;2023-04-03T10:56:05;2.60;;;1.75;;
15466;SDS011;7834;49.452;11.056;2023-04-03T10:58:58;3.05;;;2.00;;
15466;SDS011;7834;49.452;11.056;2023-04-03T11:01:27;3.92;;;1.98;;
15466;SDS011;7834;49.452;11.056;2023-04-03T11:03:54;3.40;;;2.05;;
15466;SDS011;7834;49.452;11.056;2023-04-03T11:06:23;11.85;;;6.53;;
15466;SDS011;7834;49.452;11.056;2023-04-03T11:08:51;2.97;;;1.98;;
15466;SDS011;7834;49.452;11.056;2023-04-03T11:11:25;3.17;;;2.03;;
15466;SDS011;7834;49.452;11.056;2023-04-03T11:14:03;4.32;;;2.05;;
15466;SDS011;7834;49.452;11.056;2023-04-03T11:16:33;3.88;;;2.10;;
15466;SDS011;7834;49.452;11.056;2023-04-03T11:19:03;3.20;;;2.20;;
15466;SDS011;7834;49.452;11.056;2023-04-03T11:21:48;3.33;;;2.00;;
15466;SDS011;7834;49.452;11.056;2023-04-03T11:24:22;3.93;;;1.80;;
15466;SDS011;7834;49.452;11.056;2023-04-03T11:26:49;2.37;;;1.70;;
15466;SDS011;7834;49.452;11.056;2023-04-03T11:29:20;2.58;;;1.77;;
15466;SDS011;7834;49.452;11.056;2023-04-03T11:31:56;2.43;;;1.83;;
15466;SDS011;7834;49.452;11.056;2023-04-03T11:37:23;2.83;;;1.90;;
15466;SDS011;7834;49.452;11.056;2023-04-03T11:40:00;2.10;;;1.80;;
15466;SDS011;7834;49.452;11.056;2023-04-03T11:47:44;7.72;;;2.40;;
15466;SDS011;7834;49.452;11.056;2023-04-03T11:52:56;14.03;;;2.73;;
15466;SDS011;7834;49.452;11.056;2023-04-03T12:05:50;3.60;;;2.20;;
15466;SDS011;7834;49.452;11.056;2023-04-03T12:08:30;4.95;;;2.50;;
15466;SDS011;7834;49.452;11.056;2023-04-03T12:16:05;3.72;;;1.85;;
15466;SDS011;7834;49.452;11.056;2023-04-03T12:21:21;3.42;;;2.22;;
15466;SDS011;7834;49.452;11.056;2023-04-03T12:26:34;10.32;;;3.13;;
15466;SDS011;7834;49.452;11.056;2023-04-03T12:29:09;4.85;;;2.15;;
15466;SDS011;7834;49.452;11.056;2023-04-03T12:31:39;3.50;;;2.20;;
15466;SDS011;7834;49.452;11.056;2023-04-03T12:36:49;3.20;;;2.00;;
15466;SDS011;7834;49.452;11.056;2023-04-03T12:39:32;3.35;;;2.08;;
15466;SDS011;7834;49.452;11.056;2023-04-03T12:42:08;2.92;;;1.90;;
15466;SDS011;7834;49.452;11.056;2023-04-03T12:47:21;2.65;;;2.03;;
15466;SDS011;7834;49.452;11.056;2023-04-03T12:49:54;4.10;;;1.90;;
15466;SDS011;7834;49.452;11.056;2023-04-03T12:54:55;2.92;;;1.90;;
15466;SDS011;7834;49.452;11.056;2023-04-03T12:57:25;3.70;;;2.28;;
15466;SDS011;7834;49.452;11.056;2023-04-03T12:59:54;3.38;;;1.80;;
15466;SDS011;7834;49.452;11.056;2023-04-03T13:04:54;4.10;;;2.20;;
15466;SDS011;7834;49.452;11.056;2023-04-03T13:07:24;2.55;;;1.80;;
15466;SDS011;7834;49.452;11.056;2023-04-03T13:09:56;3.33;;;1.93;;
15466;SDS011;7834;49.452;11.056;2023-04-03T13:12:22;2.20;;;1.80;;
15466;SDS011;7834;49.452;11.056;2023-04-03T13:14:55;3.33;;;1.90;;
15466;SDS011;7834;49.452;11.056;2023-04-03T13:17:22;2.87;;;1.70;;
15466;SDS011;7834;49.452;11.056;2023-04-03T13:19:49;3.80;;;2.28;;
15466;SDS011;7834;49.452;11.056;2023-04-03T13:24:48;3.67;;;2.13;;
15466;SDS011;7834;49.452;11.056;2023-04-03T13:27:16;2.90;;;2.00;;
15466;SDS011;7834;49.452;11.056;2023-04-03T13:29:42;3.38;;;1.95;;
15466;SDS011;7834;49.452;11.056;2023-04-03T13:32:19;2.50;;;1.92;;
15466;SDS011;7834;49.452;11.056;2023-04-03T13:34:46;2.97;;;2.10;;
15466;SDS011;7834;49.452;11.056;2023-04-03T13:37:26;4.00;;;2.00;;
15466;SDS011;7834;49.452;11.056;2023-04-03T13:42:57;3.45;;;1.80;;
15466;SDS011;7834;49.452;11.056;2023-04-03T13:45:25;2.25;;;1.80;;
15466;SDS011;7834;49.452;11.056;2023-04-03T13:47:54;2.90;;;1.80;;
15466;SDS011;7834;49.452;11.056;2023-04-03T13:50:21;3.25;;;2.00;;
15466;SDS011;7834;49.452;11.056;2023-04-03T13:52:54;5.35;;;2.00;;
15466;SDS011;7834;49.452;11.056;2023-04-03T13:55:24;3.30;;;2.00;;
15466;SDS011;7834;49.452;11.056;2023-04-03T14:00:38;7.70;;;4.55;;
15466;SDS011;7834;49.452;11.056;2023-04-03T14:05:49;3.07;;;1.97;;
15466;SDS011;7834;49.452;11.056;2023-04-03T14:08:16;2.55;;;1.90;;
15466;SDS011;7834;49.452;11.056;2023-04-03T14:10:42;5.28;;;2.38;;
15466;SDS011;7834;49.452;11.056;2023-04-03T14:13:12;3.58;;;1.92;;
15466;SDS011;7834;49.452;11.056;2023-04-03T14:15:39;2.95;;;2.00;;
15466;SDS011;7834;49.452;11.056;2023-04-03T14:18:05;2.72;;;1.83;;
15466;SDS011;7834;49.452;11.056;2023-04-03T14:20:31;5.30;;;2.10;;
15466;SDS011;7834;49.452;11.056;2023-04-03T14:22:57;3.63;;;2.20;;
15466;SDS011;7834;49.452;11.056;2023-04-03T14:25:23;2.35;;;1.85;;
15466;SDS011;7834;49.452;11.056;2023-04-03T14:27:53;2.70;;;1.90;;
15466;SDS011;7834;49.452;11.056;2023-04-03T14:32:46;4.70;;;2.03;;
15466;SDS011;7834;49.452;11.056;2023-04-03T14:35:12;2.20;;;1.70;;
15466;SDS011;7834;49.452;11.056;2023-04-03T14:37:39;3.28;;;1.83;;
15466;SDS011;7834;49.452;11.056;2023-04-03T14:40:07;3.07;;;2.00;;
15466;SDS011;7834;49.452;11.056;2023-04-03T14:42:36;2.78;;;1.85;;
15466;SDS011;7834;49.452;11.056;2023-04-03T14:45:04;4.57;;;2.10;;
15466;SDS011;7834;49.452;11.056;2023-04-03T14:47:31;3.38;;;2.20;;
15466;SDS011;7834;49.452;11.056;2023-04-03T14:49:58;2.13;;;1.90;;
15466;SDS011;7834;49.452;11.056;2023-04-03T14:52:25;2.85;;;1.98;;
15466;SDS011;7834;49.452;11.056;2023-04-03T14:54:52;2.97;;;2.10;;
15466;SDS011;7834;49.452;11.056;2023-04-03T14:57:18;3.15;;;2.10;;
15466;SDS011;7834;49.452;11.056;2023-04-03T14:59:45;2.78;;;1.88;;
15466;SDS011;7834;49.452;11.056;2023-04-03T15:02:20;3.60;;;1.80;;
15466;SDS011;7834;49.452;11.056;2023-04-03T15:04:48;2.95;;;1.75;;
15466;SDS011;7834;49.452;11.056;2023-04-03T15:07:14;2.55;;;2.00;;
15466;SDS011;7834;49.452;11.056;2023-04-03T15:09:41;3.22;;;1.80;;
15466;SDS011;7834;49.452;11.056;2023-04-03T15:12:08;3.42;;;1.88;;
15466;SDS011;7834;49.452;11.056;2023-04-03T15:14:34;3.50;;;2.00;;
15466;SDS011;7834;49.452;11.056;2023-04-03T15:17:00;4.30;;;1.95;;
15466;SDS011;7834;49.452;11.056;2023-04-03T15:19:27;4.18;;;1.90;;
15466;SDS011;7834;49.452;11.056;2023-04-03T15:21:53;3.13;;;1.88;;
15466;SDS011;7834;49.452;11.056;2023-04-03T15:24:19;2.67;;;1.80;;
15466;SDS011;7834;49.452;11.056;2023-04-03T15:26:45;2.60;;;1.98;;
15466;SDS011;7834;49.452;11.056;2023-04-03T15:29:11;2.42;;;1.92;;
15466;SDS011;7834;49.452;11.056;2023-04-03T15:31:37;3.90;;;2.13;;
15466;SDS011;7834;49.452;11.056;2023-04-03T15:34:03;4.03;;;1.90;;
15466;SDS011;7834;49.452;11.056;2023-04-03T15:36:29;3.60;;;2.10;;
15466;SDS011;7834;49.452;11.056;2023-04-03T15:38:55;4.90;;;1.88;;
15466;SDS011;7834;49.452;11.056;2023-04-03T15:41:21;2.75;;;1.80;;
15466;SDS011;7834;49.452;11.056;2023-04-03T15:43:47;3.10;;;1.80;;
15466;SDS011;7834;49.452;11.056;2023-04-03T15:46:13;3.55;;;1.80;;
15466;SDS011;7834;49.452;11.056;2023-04-03T15:48:40;2.13;;;1.75;;
15466;SDS011;7834;49.452;11.056;2023-04-03T15:51:06;3.28;;;1.70;;
15466;SDS011;7834;49.452;11.056;2023-04-03T15:53:32;3.55;;;1.90;;
15466;SDS011;7834;49.452;11.056;2023-04-03T15:55:58;4.55;;;2.00;;
15466;SDS011;7834;49.452;11.056;2023-04-03T15:58:24;3.30;;;2.08;;
15466;SDS011;7834;49.452;11.056;2023-04-03T16:00:50;3.53;;;1.80;;
15466;SDS011;7834;49.452;11.056;2023-04-03T16:03:17;5.20;;;1.90;;
15466;SDS011;7834;49.452;11.056;2023-04-03T16:05:44;2.35;;;1.83;;
15466;SDS011;7834;49.452;11.056;2023-04-03T16:08:10;3.85;;;1.92;;
15466;SDS011;7834;49.452;11.056;2023-04-03T16:10:37;2.78;;;1.85;;
15466;SDS011;7834;49.452;11.056;2023-04-03T16:13:04;3.60;;;1.90;;
15466;SDS011;7834;49.452;11.056;2023-04-03T16:15:35;3.67;;;1.90;;
15466;SDS011;7834;49.452;11.056;2023-04-03T16:18:02;5.25;;;1.90;;
15466;SDS011;7834;49.452;11.056;2023-04-03T16:20:28;2.57;;;1.70;;
15466;SDS011;7834;49.452;11.056;2023-04-03T16:22:56;4.75;;;2.00;;
15466;SDS011;7834;49.452;11.056;2023-04-03T16:25:22;3.33;;;2.00;;
15466;SDS011;7834;49.452;11.056;2023-04-03T16:27:48;3.10;;;1.80;;
15466;SDS011;7834;49.452;11.056;2023-04-03T16:30:15;3.08;;;1.80;;
15466;SDS011;7834;49.452;11.056;2023-04-03T16:32:41;2.10;;;1.70;;